createdAt,value
2023-04-16T00:00:00.187Z,120.64
2023-04-16T00:01:00.127Z,124.74
2023-04-16T00:02:00.263Z,122.20
2023-04-16T00:03:00.318Z,118.41
2023-04-16T00:04:00.545Z,120.52
2023-04-16T00:05:00.298Z,121.74
2023-04-16T00:06:00.321Z,122.95
2023-04-16T00:07:00.224Z,126.01
2023-04-16T00:08:00.269Z,126.09
2023-04-16T00:09:00.274Z,126.49
2023-04-16T00:10:00.347Z,126.54
2023-04-16T00:11:00.340Z,127.35
2023-04-16T00:12:00.346Z,127.20
2023-04-16T00:13:00.348Z,130.27
2023-04-16T00:14:00.346Z,127.84
2023-04-16T00:15:00.341Z,128.11
2023-04-16T00:16:00.335Z,128.16
2023-04-16T00:17:00.404Z,130.16
2023-04-16T00:18:00.361Z,129.86
2023-04-16T00:19:00.353Z,128.15
2023-04-16T00:20:00.358Z,134.58
2023-04-16T00:21:00.366Z,135.15
2023-04-16T00:22:00.373Z,135.87
2023-04-16T00:23:00.379Z,138.85
2023-04-16T00:24:00.455Z,143.54
2023-04-16T00:25:00.383Z,147.26
2023-04-16T00:26:00.423Z,151.58
2023-04-16T00:27:00.410Z,152.87
2023-04-16T00:28:00.420Z,148.62
2023-04-16T00:29:00.486Z,149.33
2023-04-16T00:30:00.433Z,151.81
2023-04-16T00:31:00.402Z,148.60
2023-04-16T00:32:00.368Z,148.50
2023-04-16T00:33:00.454Z,148.02
2023-04-16T00:34:00.348Z,143.69
2023-04-16T00:35:00.398Z,141.31
2023-04-16T00:36:00.372Z,149.58
2023-04-16T00:37:00.404Z,147.11
2023-04-16T00:38:00.425Z,143.83
2023-04-16T00:39:00.378Z,137.65
2023-04-16T00:40:00.389Z,139.63
2023-04-16T00:41:00.347Z,136.62
2023-04-16T00:42:00.339Z,137.57
2023-04-16T00:43:00.353Z,134.06
2023-04-16T00:44:00.519Z,137.88
2023-04-16T00:45:00.317Z,132.12
2023-04-16T00:46:00.350Z,127.21
2023-04-16T00:47:00.338Z,123.01
2023-04-16T00:48:00.755Z,123.20
2023-04-16T00:49:00.307Z,125.70
2023-04-16T00:50:00.275Z,124.82
2023-04-16T00:51:00.289Z,129.08
2023-04-16T00:52:00.307Z,125.10
2023-04-16T00:53:00.384Z,124.76
2023-04-16T00:54:00.267Z,125.11
2023-04-16T00:55:00.308Z,127.53
2023-04-16T00:56:00.293Z,124.75
2023-04-16T00:57:00.289Z,124.97
2023-04-16T00:58:00.259Z,122.74
2023-04-16T00:59:00.300Z,121.63
2023-04-16T01:00:00.260Z,121.56
2023-04-16T01:01:00.256Z,123.40
2023-04-16T01:02:00.398Z,126.95
2023-04-16T01:03:00.437Z,127.78
2023-04-16T01:04:00.390Z,132.34
2023-04-16T01:05:00.296Z,131.61
2023-04-16T01:06:00.296Z,134.73
2023-04-16T01:07:00.270Z,131.91
2023-04-16T01:08:00.386Z,135.12
2023-04-16T01:09:00.275Z,139.22
2023-04-16T01:10:00.303Z,135.08
2023-04-16T01:11:00.324Z,134.84
2023-04-16T01:12:00.294Z,137.26
2023-04-16T01:13:00.301Z,139.20
2023-04-16T01:14:00.310Z,143.68
2023-04-16T01:15:00.359Z,146.82
2023-04-16T01:16:00.361Z,152.38
2023-04-16T01:17:00.333Z,150.04
2023-04-16T01:18:00.408Z,155.69
2023-04-16T01:19:00.301Z,156.95
2023-04-16T01:20:00.359Z,158.51
2023-04-16T01:21:00.366Z,156.98
2023-04-16T01:22:00.367Z,160.23
2023-04-16T01:23:00.886Z,155.96
2023-04-16T01:24:00.382Z,159.18
2023-04-16T01:25:00.389Z,159.57
2023-04-16T01:26:00.356Z,166.10
2023-04-16T01:27:00.431Z,164.97
2023-04-16T01:28:00.418Z,165.45
2023-04-16T01:29:00.383Z,169.55
2023-04-16T01:30:00.373Z,166.97
2023-04-16T01:31:00.454Z,167.05
2023-04-16T01:32:00.442Z,167.88
2023-04-16T01:33:00.505Z,167.55
2023-04-16T01:34:00.480Z,173.62
2023-04-16T01:35:00.523Z,170.73
2023-04-16T01:36:00.419Z,170.30
2023-04-16T01:37:00.422Z,166.51
2023-04-16T01:38:00.407Z,167.33
2023-04-16T01:39:00.406Z,168.13
2023-04-16T01:40:00.461Z,162.47
2023-04-16T01:41:00.421Z,161.91
2023-04-16T01:42:00.438Z,161.78
2023-04-16T01:43:00.427Z,162.22
2023-04-16T01:44:00.444Z,161.07
2023-04-16T01:45:00.447Z,156.71
2023-04-16T01:46:00.455Z,153.23
2023-04-16T01:47:00.571Z,159.29
2023-04-16T01:48:00.555Z,153.10
2023-04-16T01:49:00.517Z,152.47
2023-04-16T01:50:00.502Z,153.27
2023-04-16T01:51:00.489Z,151.54
2023-04-16T01:52:00.543Z,149.36
2023-04-16T01:53:00.511Z,146.33
2023-04-16T01:54:00.562Z,152.27
2023-04-16T01:55:00.596Z,151.97
2023-04-16T01:56:00.638Z,150.25
2023-04-16T01:57:00.606Z,146.44
2023-04-16T01:58:00.553Z,144.12
2023-04-16T01:59:00.633Z,146.73
2023-04-16T02:00:00.654Z,146.34
2023-04-16T02:01:00.741Z,146.97
2023-04-16T02:02:00.767Z,151.01
2023-04-16T02:03:00.835Z,150.77
2023-04-16T02:04:00.829Z,149.66
2023-04-16T02:05:00.733Z,150.26
2023-04-16T02:06:00.706Z,151.35
2023-04-16T02:07:00.708Z,147.18
2023-04-16T02:08:00.704Z,145.90
2023-04-16T02:09:00.732Z,141.83
2023-04-16T02:10:00.752Z,138.50
2023-04-16T02:11:00.798Z,137.23
2023-04-16T02:12:00.735Z,137.14
2023-04-16T02:13:00.822Z,135.32
2023-04-16T02:14:00.780Z,132.59
2023-04-16T02:15:00.862Z,132.78
2023-04-16T02:16:00.809Z,136.86
2023-04-16T02:17:00.788Z,135.98
2023-04-16T02:18:00.906Z,140.59
2023-04-16T02:19:00.849Z,138.39
2023-04-16T02:20:00.848Z,141.76
2023-04-16T02:21:00.908Z,145.22
2023-04-16T02:22:00.890Z,142.45
2023-04-16T02:23:00.899Z,142.79
2023-04-16T02:24:00.909Z,141.25
2023-04-16T02:25:00.940Z,143.13
2023-04-16T02:26:01.041Z,140.11
2023-04-16T02:27:00.952Z,141.57
2023-04-16T02:28:01.027Z,143.05
2023-04-16T02:29:01.022Z,140.78
2023-04-16T02:30:01.056Z,138.86
2023-04-16T02:31:01.060Z,138.58
2023-04-16T02:32:01.158Z,134.20
2023-04-16T02:33:01.167Z,131.34
2023-04-16T02:34:01.103Z,129.43
2023-04-16T02:35:01.164Z,127.34
2023-04-16T02:36:01.132Z,126.56
2023-04-16T02:37:01.175Z,127.38
2023-04-16T02:38:01.195Z,122.11
2023-04-16T02:39:01.246Z,114.72
2023-04-16T02:40:01.261Z,115.02
2023-04-16T02:41:01.230Z,113.22
2023-04-16T02:42:01.303Z,109.71
2023-04-16T02:43:01.279Z,110.72
2023-04-16T02:44:01.314Z,102.48
2023-04-16T02:45:01.336Z,104.30
2023-04-16T02:46:01.442Z,101.31
2023-04-16T02:47:01.487Z,101.21
2023-04-16T02:48:01.444Z,100.18
2023-04-16T02:49:01.469Z,96.60
2023-04-16T02:50:01.471Z,102.58
2023-04-16T02:51:01.509Z,104.45
2023-04-16T02:52:01.478Z,102.24
2023-04-16T02:53:01.597Z,105.72
2023-04-16T02:54:01.579Z,106.74
2023-04-16T02:55:01.552Z,109.32
2023-04-16T02:56:01.566Z,113.08
2023-04-16T02:57:01.611Z,113.88
2023-04-16T02:58:01.630Z,114.41
2023-04-16T02:59:01.670Z,114.36
2023-04-16T03:00:01.665Z,119.16
2023-04-16T03:01:01.834Z,122.00
2023-04-16T03:02:01.722Z,119.09
2023-04-16T03:03:01.886Z,119.94
2023-04-16T03:04:01.784Z,125.42
2023-04-16T03:05:01.731Z,124.89
2023-04-16T03:06:01.777Z,123.96
2023-04-16T03:07:01.933Z,122.18
2023-04-16T03:08:01.818Z,128.83
2023-04-16T03:09:01.834Z,129.07
2023-04-16T03:10:01.890Z,126.06
2023-04-16T03:11:01.859Z,128.82
2023-04-16T03:12:01.878Z,127.40
2023-04-16T03:13:02.008Z,123.60
2023-04-16T03:14:01.942Z,125.74
2023-04-16T03:15:01.944Z,123.14
2023-04-16T03:16:02.085Z,123.58
2023-04-16T03:17:01.984Z,123.57
2023-04-16T03:18:02.133Z,125.37
2023-04-16T03:19:02.071Z,126.34
2023-04-16T03:20:02.058Z,128.25
2023-04-16T03:21:02.076Z,125.20
2023-04-16T03:22:02.096Z,129.50
2023-04-16T03:23:02.106Z,132.02
2023-04-16T03:24:02.149Z,134.75
2023-04-16T03:25:02.152Z,132.97
2023-04-16T03:26:02.243Z,134.70
2023-04-16T03:27:02.183Z,133.54
2023-04-16T03:28:02.201Z,133.82
2023-04-16T03:29:02.246Z,134.27
2023-04-16T03:30:02.312Z,138.40
2023-04-16T03:31:02.349Z,140.76
2023-04-16T03:32:02.300Z,140.16
2023-04-16T03:33:02.367Z,141.54
2023-04-16T03:34:02.387Z,136.42
2023-04-16T03:35:02.382Z,142.37
2023-04-16T03:36:02.433Z,143.58
2023-04-16T03:37:02.458Z,144.87
2023-04-16T03:38:02.401Z,145.53
2023-04-16T03:39:02.450Z,147.82
2023-04-16T03:40:02.465Z,151.45
2023-04-16T03:41:02.459Z,150.57
2023-04-16T03:42:02.558Z,149.44
2023-04-16T03:43:02.509Z,148.44
2023-04-16T03:44:02.509Z,147.99
2023-04-16T03:45:02.568Z,143.19
2023-04-16T03:46:02.572Z,143.16
2023-04-16T03:47:02.624Z,143.87
2023-04-16T03:48:02.604Z,139.26
2023-04-16T03:49:02.619Z,137.88
2023-04-16T03:50:02.635Z,137.12
2023-04-16T03:51:02.658Z,136.85
2023-04-16T03:52:02.716Z,136.49
2023-04-16T03:53:02.726Z,138.94
2023-04-16T03:54:02.713Z,143.52
2023-04-16T03:55:02.782Z,142.52
2023-04-16T03:56:02.783Z,137.05
2023-04-16T03:57:02.790Z,139.42
2023-04-16T03:58:02.772Z,141.92
2023-04-16T03:59:02.799Z,145.22
2023-04-16T04:00:02.888Z,147.38
2023-04-16T04:01:02.884Z,149.00
2023-04-16T04:02:02.965Z,150.58
2023-04-16T04:03:03.077Z,149.64
2023-04-16T04:04:03.018Z,157.41
2023-04-16T04:05:02.981Z,157.81
2023-04-16T04:06:02.952Z,160.99
2023-04-16T04:07:02.940Z,160.35
2023-04-16T04:08:02.986Z,164.68
2023-04-16T04:09:03.050Z,163.50
2023-04-16T04:10:03.080Z,165.49
2023-04-16T04:11:03.045Z,165.87
2023-04-16T04:12:03.046Z,165.89
2023-04-16T04:13:03.099Z,163.54
2023-04-16T04:14:03.103Z,166.11
2023-04-16T04:15:03.204Z,173.66
2023-04-16T04:16:03.152Z,174.41
2023-04-16T04:17:03.123Z,170.26
2023-04-16T04:18:03.174Z,172.81
2023-04-16T04:19:03.155Z,175.29
2023-04-16T04:20:03.226Z,176.07
2023-04-16T04:21:03.224Z,177.71
2023-04-16T04:22:03.235Z,179.50
2023-04-16T04:23:03.230Z,186.22
2023-04-16T04:24:03.289Z,185.77
2023-04-16T04:25:03.279Z,189.40
2023-04-16T04:26:03.312Z,191.09
2023-04-16T04:27:03.358Z,192.91
2023-04-16T04:28:03.295Z,198.20
2023-04-16T04:29:03.309Z,200.16
2023-04-16T04:30:03.415Z,201.80
2023-04-16T04:31:03.356Z,201.64
2023-04-16T04:32:03.433Z,207.18
2023-04-16T04:33:03.453Z,203.21
2023-04-16T04:34:03.415Z,207.46
2023-04-16T04:35:03.444Z,204.25
2023-04-16T04:36:03.475Z,198.13
2023-04-16T04:37:03.532Z,202.83
2023-04-16T04:38:03.539Z,205.63
2023-04-16T04:39:03.535Z,210.33
2023-04-16T04:40:03.583Z,207.70
2023-04-16T04:41:03.623Z,208.08
2023-04-16T04:42:03.571Z,208.06
2023-04-16T04:43:03.558Z,211.93
2023-04-16T04:44:03.562Z,208.99
2023-04-16T04:45:03.582Z,209.10
2023-04-16T04:46:03.665Z,202.60
2023-04-16T04:47:03.591Z,196.56
2023-04-16T04:48:03.589Z,190.18
2023-04-16T04:49:03.620Z,183.29
2023-04-16T04:50:03.597Z,181.75
2023-04-16T04:51:04.987Z,176.66
2023-04-16T04:52:03.715Z,175.71
2023-04-16T04:53:03.626Z,171.76
2023-04-16T04:54:03.605Z,164.91
2023-04-16T04:55:03.658Z,161.10
2023-04-16T04:56:12.286Z,165.90
2023-04-16T04:57:04.632Z,161.83
2023-04-16T04:58:03.606Z,155.55
2023-04-16T04:59:03.644Z,151.19
2023-04-16T05:00:03.597Z,153.84
2023-04-16T05:01:03.672Z,147.11
2023-04-16T05:02:03.670Z,147.13
2023-04-16T05:03:03.684Z,143.13
2023-04-16T05:04:03.650Z,141.82
2023-04-16T05:05:03.634Z,148.97
2023-04-16T05:06:03.547Z,148.25
2023-04-16T05:07:03.571Z,151.30
2023-04-16T05:08:03.542Z,150.55
2023-04-16T05:09:03.546Z,152.64
2023-04-16T05:10:03.515Z,161.82
2023-04-16T05:11:03.586Z,161.41
2023-04-16T05:12:03.518Z,159.85
2023-04-16T05:13:03.513Z,164.74
2023-04-16T05:14:03.511Z,164.19
2023-04-16T05:15:03.556Z,167.66
2023-04-16T05:16:03.491Z,171.12
2023-04-16T05:17:03.609Z,166.90
2023-04-16T05:18:03.545Z,170.13
2023-04-16T05:19:03.529Z,166.67
2023-04-16T05:20:03.455Z,173.52
2023-04-16T05:21:03.426Z,174.57
2023-04-16T05:22:03.473Z,175.22
2023-04-16T05:23:03.424Z,174.81
2023-04-16T05:24:03.431Z,164.55
2023-04-16T05:25:03.453Z,162.37
2023-04-16T05:26:03.380Z,160.50
2023-04-16T05:27:03.396Z,159.36
2023-04-16T05:28:03.373Z,158.85
2023-04-16T05:29:03.406Z,150.75
2023-04-16T05:30:03.438Z,148.27
2023-04-16T05:31:03.433Z,145.60
2023-04-16T05:32:03.371Z,141.66
2023-04-16T05:33:03.365Z,134.59
2023-04-16T05:34:03.381Z,132.23
2023-04-16T05:35:03.346Z,135.99
2023-04-16T05:36:03.361Z,130.06
2023-04-16T05:37:03.368Z,122.85
2023-04-16T05:38:03.335Z,118.19
2023-04-16T05:39:03.378Z,115.61
2023-04-16T05:40:03.354Z,118.62
2023-04-16T05:41:03.333Z,125.25
2023-04-16T05:42:03.436Z,122.69
2023-04-16T05:43:03.347Z,128.57
2023-04-16T05:44:03.328Z,130.44
2023-04-16T05:45:03.375Z,133.18
2023-04-16T05:46:03.421Z,135.29
2023-04-16T05:47:03.368Z,135.35
2023-04-16T05:48:03.338Z,139.89
2023-04-16T05:49:03.452Z,144.66
2023-04-16T05:50:03.335Z,142.34
2023-04-16T05:51:03.363Z,147.05
2023-04-16T05:52:03.357Z,143.41
2023-04-16T05:53:03.336Z,143.33
2023-04-16T05:54:03.308Z,137.99
2023-04-16T05:55:03.448Z,136.72
2023-04-16T05:56:03.340Z,142.28
2023-04-16T05:57:03.352Z,146.52
2023-04-16T05:58:03.316Z,145.10
2023-04-16T05:59:03.289Z,154.23
2023-04-16T06:00:03.282Z,158.18
2023-04-16T06:01:03.320Z,154.40
2023-04-16T06:02:03.333Z,146.31
2023-04-16T06:03:03.455Z,145.99
2023-04-16T06:04:03.393Z,143.13
2023-04-16T06:05:03.324Z,143.79
2023-04-16T06:06:03.366Z,143.46
2023-04-16T06:07:03.307Z,141.97
2023-04-16T06:08:03.273Z,148.21
2023-04-16T06:09:03.238Z,151.74
2023-04-16T06:10:03.282Z,146.78
2023-04-16T06:11:03.263Z,151.29
2023-04-16T06:12:03.312Z,148.88
2023-04-16T06:13:03.346Z,151.32
2023-04-16T06:14:03.303Z,150.14
2023-04-16T06:15:03.319Z,149.93
2023-04-16T06:16:03.407Z,149.61
2023-04-16T06:17:03.369Z,148.71
2023-04-16T06:18:03.514Z,153.21
2023-04-16T06:19:03.490Z,157.06
2023-04-16T06:20:03.559Z,155.32
2023-04-16T06:21:03.586Z,159.32
2023-04-16T06:22:03.646Z,171.05
2023-04-16T06:23:03.717Z,169.35
2023-04-16T06:24:03.746Z,170.51
2023-04-16T06:25:03.805Z,164.80
2023-04-16T06:26:03.886Z,174.39
2023-04-16T06:27:03.964Z,176.63
2023-04-16T06:28:03.987Z,175.20
2023-04-16T06:29:04.082Z,171.12
2023-04-16T06:30:04.127Z,169.99
2023-04-16T06:31:04.280Z,173.98
2023-04-16T06:32:04.254Z,179.25
2023-04-16T06:33:04.347Z,172.97
2023-04-16T06:34:04.370Z,168.89
2023-04-16T06:35:04.455Z,173.52
2023-04-16T06:36:04.484Z,172.20
2023-04-16T06:37:04.565Z,170.44
2023-04-16T06:38:04.682Z,171.06
2023-04-16T06:39:04.739Z,175.94
2023-04-16T06:40:04.921Z,177.72
2023-04-16T06:41:04.787Z,177.22
2023-04-16T06:42:04.880Z,185.88
2023-04-16T06:43:04.924Z,190.58
2023-04-16T06:44:04.996Z,198.61
2023-04-16T06:45:05.028Z,204.02
2023-04-16T06:46:05.103Z,209.95
2023-04-16T06:47:05.345Z,214.96
2023-04-16T06:48:05.255Z,222.08
2023-04-16T06:49:05.219Z,220.40
2023-04-16T06:50:05.257Z,225.27
2023-04-16T06:51:05.395Z,224.55
2023-04-16T06:52:06.049Z,222.40
2023-04-16T06:53:05.463Z,220.98
2023-04-16T06:54:05.459Z,217.28
2023-04-16T06:55:05.506Z,213.43
2023-04-16T06:56:05.561Z,215.29
2023-04-16T06:57:05.601Z,214.03
2023-04-16T06:58:05.631Z,214.00
2023-04-16T06:59:05.702Z,212.22
2023-04-16T07:00:05.720Z,212.77
2023-04-16T07:01:05.789Z,212.29
2023-04-16T07:02:05.902Z,213.95
2023-04-16T07:03:05.926Z,222.72
2023-04-16T07:04:05.953Z,225.95
2023-04-16T07:05:05.943Z,227.30
2023-04-16T07:06:05.987Z,230.10
2023-04-16T07:07:05.998Z,229.14
2023-04-16T07:08:06.021Z,230.59
2023-04-16T07:09:06.082Z,236.86
2023-04-16T07:10:06.081Z,232.24
2023-04-16T07:11:06.097Z,222.22
2023-04-16T07:12:06.133Z,221.58
2023-04-16T07:13:06.169Z,212.97
2023-04-16T07:14:06.219Z,208.89
2023-04-16T07:15:06.176Z,202.87
2023-04-16T07:16:06.255Z,198.83
2023-04-16T07:17:06.239Z,186.91
2023-04-16T07:18:06.350Z,181.30
2023-04-16T07:19:06.283Z,179.96
2023-04-16T07:20:06.359Z,184.10
2023-04-16T07:21:06.365Z,182.29
2023-04-16T07:22:06.368Z,177.43
2023-04-16T07:23:06.370Z,172.39
2023-04-16T07:24:06.402Z,161.97
2023-04-16T07:25:06.447Z,156.41
2023-04-16T07:26:06.409Z,149.88
2023-04-16T07:27:06.419Z,147.08
2023-04-16T07:28:06.449Z,134.72
2023-04-16T07:29:06.467Z,125.76
2023-04-16T07:30:06.467Z,113.90
2023-04-16T07:31:06.484Z,101.92
2023-04-16T07:32:06.532Z,100.67
2023-04-16T07:33:06.504Z,96.02
2023-04-16T07:34:06.483Z,96.01
2023-04-16T07:35:06.561Z,85.03
2023-04-16T07:36:06.567Z,74.61
2023-04-16T07:37:06.534Z,72.79
2023-04-16T07:38:06.626Z,72.83
2023-04-16T07:39:06.550Z,69.32
2023-04-16T07:40:06.615Z,63.71
2023-04-16T07:41:06.613Z,53.71
2023-04-16T07:42:06.612Z,45.15
2023-04-16T07:43:06.623Z,39.21
2023-04-16T07:44:06.620Z,37.19
2023-04-16T07:45:06.624Z,33.48
2023-04-16T07:46:06.700Z,34.61
2023-04-16T07:47:06.760Z,33.24
2023-04-16T07:48:06.670Z,25.00
2023-04-16T07:49:06.654Z,29.08
2023-04-16T07:50:06.661Z,34.31
2023-04-16T07:51:06.664Z,27.99
2023-04-16T07:52:06.673Z,28.08
2023-04-16T07:53:06.680Z,37.08
2023-04-16T07:54:06.649Z,33.21
2023-04-16T07:55:06.702Z,32.90
2023-04-16T07:56:06.702Z,31.09
2023-04-16T07:57:06.740Z,32.49
2023-04-16T07:58:06.656Z,31.95
2023-04-16T07:59:21.214Z,34.00
2023-04-16T08:00:07.653Z,34.45
2023-04-16T08:01:06.656Z,36.60
2023-04-16T08:02:06.802Z,41.23
2023-04-16T08:03:06.959Z,46.88
2023-04-16T08:04:06.703Z,63.74
2023-04-16T08:05:06.860Z,61.62
2023-04-16T08:06:06.595Z,61.28
2023-04-16T08:07:06.696Z,62.36
2023-04-16T08:08:06.613Z,61.72
2023-04-16T08:09:06.605Z,70.50
2023-04-16T08:10:06.550Z,72.07
2023-04-16T08:11:06.604Z,75.56
2023-04-16T08:12:06.575Z,72.32
2023-04-16T08:13:06.548Z,75.22
2023-04-16T08:14:06.550Z,73.34
2023-04-16T08:15:06.558Z,78.09
2023-04-16T08:16:06.565Z,81.89
2023-04-16T08:17:06.533Z,87.26
2023-04-16T08:18:06.568Z,96.32
2023-04-16T08:19:06.515Z,96.39
2023-04-16T08:20:06.562Z,96.79
2023-04-16T08:21:06.505Z,101.10
2023-04-16T08:22:06.509Z,104.77
2023-04-16T08:23:06.583Z,106.97
2023-04-16T08:24:06.606Z,104.50
2023-04-16T08:25:06.648Z,106.44
2023-04-16T08:26:06.745Z,107.00
2023-04-16T08:27:17.759Z,106.99
2023-04-16T08:28:07.792Z,107.16
2023-04-16T08:29:06.760Z,107.71
2023-04-16T08:30:06.777Z,107.61
2023-04-16T08:31:06.837Z,109.68
2023-04-16T08:32:06.737Z,114.34
2023-04-16T08:33:06.737Z,110.70
2023-04-16T08:34:06.755Z,113.03
2023-04-16T08:35:06.694Z,113.06
2023-04-16T08:36:06.764Z,114.31
2023-04-16T08:37:06.916Z,114.66
2023-04-16T08:38:06.883Z,112.91
2023-04-16T08:39:06.937Z,123.50
2023-04-16T08:40:07.006Z,125.47
2023-04-16T08:41:07.065Z,125.89
2023-04-16T08:42:07.051Z,129.92
2023-04-16T08:43:07.258Z,129.29
2023-04-16T08:44:07.187Z,136.83
2023-04-16T08:45:07.238Z,124.40
2023-04-16T08:46:07.338Z,132.08
2023-04-16T08:47:07.303Z,136.02
2023-04-16T08:48:07.359Z,138.79
2023-04-16T08:49:07.508Z,138.01
2023-04-16T08:50:07.406Z,140.11
2023-04-16T08:51:07.491Z,153.74
2023-04-16T08:52:07.522Z,149.56
2023-04-16T08:53:07.541Z,150.54
2023-04-16T08:54:07.608Z,144.99
2023-04-16T08:55:07.666Z,150.66
2023-04-16T08:56:07.646Z,153.97
2023-04-16T08:57:07.712Z,148.20
2023-04-16T08:58:07.732Z,146.41
2023-04-16T08:59:07.934Z,144.26
2023-04-16T09:00:07.847Z,139.25
2023-04-16T09:01:07.907Z,141.31
2023-04-16T09:02:07.914Z,133.92
2023-04-16T09:03:08.089Z,140.23
2023-04-16T09:04:08.111Z,135.72
2023-04-16T09:05:08.031Z,145.59
2023-04-16T09:06:08.043Z,141.67
2023-04-16T09:07:08.031Z,147.60
2023-04-16T09:08:08.113Z,144.20
2023-04-16T09:09:08.467Z,148.45
2023-04-16T09:10:08.182Z,151.11
2023-04-16T09:11:08.174Z,157.47
2023-04-16T09:12:08.237Z,149.11
2023-04-16T09:13:08.231Z,151.05
2023-04-16T09:14:08.253Z,153.81
2023-04-16T09:15:08.288Z,155.87
2023-04-16T09:16:08.346Z,157.01
2023-04-16T09:17:08.315Z,152.95
2023-04-16T09:18:08.315Z,157.30
2023-04-16T09:19:08.542Z,152.70
2023-04-16T09:20:08.381Z,153.93
2023-04-16T09:21:08.415Z,143.03
2023-04-16T09:22:08.408Z,148.33
2023-04-16T09:23:08.402Z,144.16
2023-04-16T09:24:08.464Z,142.74
2023-04-16T09:25:08.464Z,146.09
2023-04-16T09:26:08.470Z,136.52
2023-04-16T09:27:08.540Z,137.74
2023-04-16T09:28:08.667Z,141.89
2023-04-16T09:29:08.759Z,132.70
2023-04-16T09:30:08.536Z,120.23
2023-04-16T09:31:08.613Z,121.90
2023-04-16T09:32:08.741Z,119.66
2023-04-16T09:33:08.620Z,127.01
2023-04-16T09:34:08.605Z,115.57
2023-04-16T09:35:08.640Z,115.80
2023-04-16T09:36:08.633Z,119.85
2023-04-16T09:37:08.649Z,115.90
2023-04-16T09:38:08.787Z,119.08
2023-04-16T09:39:08.820Z,118.94
2023-04-16T09:40:08.782Z,108.39
2023-04-16T09:41:08.764Z,99.33
2023-04-16T09:42:08.756Z,86.95
2023-04-16T09:43:08.766Z,86.38
2023-04-16T09:44:08.720Z,92.51
2023-04-16T09:45:08.728Z,84.93
2023-04-16T09:46:08.828Z,85.15
2023-04-16T09:47:08.783Z,78.74
2023-04-16T09:48:08.821Z,80.56
2023-04-16T09:49:09.169Z,79.81
2023-04-16T09:50:09.611Z,82.13
2023-04-16T09:51:08.816Z,89.44
2023-04-16T09:52:08.862Z,96.68
2023-04-16T09:53:08.832Z,102.98
2023-04-16T09:54:08.848Z,100.91
2023-04-16T09:55:08.947Z,102.19
2023-04-16T09:56:08.895Z,101.31
2023-04-16T09:57:08.872Z,102.57
2023-04-16T09:58:08.923Z,97.71
2023-04-16T09:59:09.152Z,99.44
2023-04-16T10:00:08.951Z,89.64
2023-04-16T10:01:08.931Z,98.60
2023-04-16T10:02:15.298Z,89.75
2023-04-16T10:03:09.988Z,90.06
2023-04-16T10:04:09.037Z,90.56
2023-04-16T10:05:08.948Z,92.88
2023-04-16T10:06:08.932Z,98.10
2023-04-16T10:07:08.938Z,98.99
2023-04-16T10:08:08.890Z,101.43
2023-04-16T10:09:09.121Z,105.05
2023-04-16T10:10:08.873Z,110.46
2023-04-16T10:11:08.840Z,112.25
2023-04-16T10:12:08.867Z,115.25
2023-04-16T10:13:08.854Z,116.62
2023-04-16T10:14:08.869Z,124.61
2023-04-16T10:15:08.865Z,116.03
2023-04-16T10:16:08.819Z,123.91
2023-04-16T10:17:08.933Z,121.12
2023-04-16T10:18:08.842Z,117.87
2023-04-16T10:19:09.199Z,120.77
2023-04-16T10:20:08.789Z,124.64
2023-04-16T10:21:08.821Z,136.43
2023-04-16T10:22:08.815Z,138.99
2023-04-16T10:23:08.758Z,139.50
2023-04-16T10:24:08.780Z,143.12
2023-04-16T10:25:08.939Z,138.61
2023-04-16T10:26:08.906Z,149.14
2023-04-16T10:27:08.955Z,155.46
2023-04-16T10:28:09.059Z,156.31
2023-04-16T10:29:09.286Z,150.49
2023-04-16T10:30:09.112Z,159.75
2023-04-16T10:31:09.229Z,155.67
2023-04-16T10:32:09.229Z,159.04
2023-04-16T10:33:09.358Z,163.91
2023-04-16T10:34:09.348Z,153.45
2023-04-16T10:35:09.417Z,155.45
2023-04-16T10:36:09.460Z,151.31
2023-04-16T10:37:09.549Z,149.77
2023-04-16T10:38:09.575Z,157.95
2023-04-16T10:39:09.777Z,144.76
2023-04-16T10:40:09.812Z,150.59
2023-04-16T10:41:09.715Z,140.69
2023-04-16T10:42:09.837Z,138.63
2023-04-16T10:43:09.879Z,130.05
2023-04-16T10:44:10.055Z,129.16
2023-04-16T10:45:10.006Z,129.96
2023-04-16T10:46:10.123Z,126.44
2023-04-16T10:47:10.116Z,131.47
2023-04-16T10:48:10.246Z,136.91
2023-04-16T10:49:10.431Z,145.48
2023-04-16T10:50:10.340Z,134.76
2023-04-16T10:51:10.366Z,142.08
2023-04-16T10:52:10.457Z,127.55
2023-04-16T10:53:10.505Z,136.28
2023-04-16T10:54:10.572Z,134.30
2023-04-16T10:55:10.603Z,137.79
2023-04-16T10:56:10.685Z,135.75
2023-04-16T10:57:10.785Z,123.46
2023-04-16T10:58:10.808Z,117.71
2023-04-16T10:59:11.114Z,128.78
2023-04-16T11:00:10.913Z,133.35
2023-04-16T11:01:11.072Z,133.76
2023-04-16T11:02:11.119Z,130.39
2023-04-16T11:03:11.222Z,131.84
2023-04-16T11:04:11.321Z,133.68
2023-04-16T11:05:11.250Z,129.86
2023-04-16T11:06:11.292Z,135.99
2023-04-16T11:07:11.368Z,143.16
2023-04-16T11:08:11.429Z,140.45
2023-04-16T11:09:11.574Z,125.65
2023-04-16T11:10:11.526Z,131.82
2023-04-16T11:11:11.601Z,131.10
2023-04-16T11:12:11.641Z,127.04
2023-04-16T11:13:11.813Z,125.53
2023-04-16T11:14:11.775Z,121.74
2023-04-16T11:15:11.893Z,116.97
2023-04-16T11:16:11.922Z,129.31
2023-04-16T11:17:11.977Z,118.29
2023-04-16T11:18:12.056Z,116.93
2023-04-16T11:19:12.210Z,110.65
2023-04-16T11:20:19.413Z,104.48
2023-04-16T11:21:13.144Z,104.66
2023-04-16T11:22:12.116Z,105.75
2023-04-16T11:23:12.128Z,99.84
2023-04-16T11:24:12.097Z,109.36
2023-04-16T11:25:12.103Z,98.35
2023-04-16T11:26:12.109Z,95.92
2023-04-16T11:27:12.124Z,75.86
2023-04-16T11:28:12.136Z,80.88
2023-04-16T11:29:12.122Z,81.09
2023-04-16T11:30:12.155Z,73.98
2023-04-16T11:31:12.217Z,78.62
2023-04-16T11:32:12.256Z,78.40
2023-04-16T11:33:12.308Z,74.61
2023-04-16T11:34:12.370Z,72.67
2023-04-16T11:35:12.438Z,73.45
2023-04-16T11:36:12.498Z,84.67
2023-04-16T11:37:12.532Z,79.83
2023-04-16T11:38:12.605Z,84.01
2023-04-16T11:39:12.903Z,88.24
2023-04-16T11:40:12.717Z,97.26
2023-04-16T11:41:12.734Z,92.05
2023-04-16T11:42:12.892Z,91.10
2023-04-16T11:43:12.893Z,101.41
2023-04-16T11:44:12.952Z,100.07
2023-04-16T11:45:12.993Z,102.11
2023-04-16T11:46:24.565Z,95.74
2023-04-16T11:47:14.107Z,96.23
2023-04-16T11:48:13.069Z,98.15
2023-04-16T11:49:13.252Z,99.61
2023-04-16T11:50:13.062Z,103.49
2023-04-16T11:51:13.042Z,114.26
2023-04-16T11:52:12.993Z,111.87
2023-04-16T11:53:12.973Z,111.98
2023-04-16T11:54:12.966Z,108.16
2023-04-16T11:55:13.033Z,105.21
2023-04-16T11:56:13.087Z,114.71
2023-04-16T11:57:13.119Z,112.15
2023-04-16T11:58:13.197Z,112.18
2023-04-16T11:59:13.525Z,120.99
2023-04-16T12:00:13.354Z,115.10
2023-04-16T12:01:13.423Z,116.00
2023-04-16T12:02:13.497Z,111.23
2023-04-16T12:03:13.745Z,110.58
2023-04-16T12:04:13.660Z,115.96
2023-04-16T12:05:13.666Z,116.65
2023-04-16T12:06:13.674Z,115.55
2023-04-16T12:07:13.729Z,123.07
2023-04-16T12:08:13.762Z,117.90
2023-04-16T12:09:13.851Z,114.35
2023-04-16T12:10:13.930Z,119.93
2023-04-16T12:11:14.009Z,120.18
2023-04-16T12:12:14.031Z,125.72
2023-04-16T12:13:14.132Z,107.12
2023-04-16T12:14:14.117Z,109.00
2023-04-16T12:15:14.221Z,116.33
2023-04-16T12:16:14.311Z,109.09
2023-04-16T12:17:14.324Z,109.01
2023-04-16T12:18:14.413Z,120.08
2023-04-16T12:19:14.464Z,116.54
2023-04-16T12:20:14.521Z,103.47
2023-04-16T12:21:14.655Z,98.40
2023-04-16T12:22:14.644Z,96.28
2023-04-16T12:23:14.699Z,101.19
2023-04-16T12:24:14.782Z,103.73
2023-04-16T12:25:14.800Z,91.35
2023-04-16T12:26:14.872Z,82.68
2023-04-16T12:27:14.884Z,85.23
2023-04-16T12:28:14.990Z,90.53
2023-04-16T12:29:15.035Z,81.93
2023-04-16T12:30:15.113Z,85.97
2023-04-16T12:31:15.144Z,85.48